createdAt,value
2023-03-22T00:01:23.024Z,9.30
2023-03-22T00:03:51.661Z,9.20
2023-03-22T00:06:18.536Z,9.20
2023-03-22T00:08:45.516Z,9.20
2023-03-22T00:11:12.958Z,9.20
2023-03-22T00:13:39.970Z,9.20
2023-03-22T00:16:07.398Z,9.20
2023-03-22T00:18:34.207Z,9.30
2023-03-22T00:21:02.032Z,9.20
2023-03-22T00:23:29.579Z,9.30
2023-03-22T00:25:56.618Z,9.30
2023-03-22T00:28:24.222Z,9.30
2023-03-22T00:30:53.532Z,9.20
2023-03-22T00:33:20.436Z,9.30
2023-03-22T00:35:55.240Z,9.20
2023-03-22T00:38:29.970Z,9.30
2023-03-22T00:41:08.509Z,9.30
2023-03-22T00:43:35.496Z,9.30
2023-03-22T00:46:02.416Z,9.30
2023-03-22T00:48:32.047Z,9.30
2023-03-22T00:50:58.877Z,9.30
2023-03-22T00:53:26.229Z,9.30
2023-03-22T00:55:53.019Z,9.40
2023-03-22T00:58:19.831Z,9.40
2023-03-22T01:00:46.683Z,9.30
2023-03-22T01:03:14.312Z,9.40
2023-03-22T01:05:41.193Z,9.50
2023-03-22T01:08:10.869Z,9.50
2023-03-22T01:10:38.994Z,9.50
2023-03-22T01:13:06.530Z,9.50
2023-03-22T01:15:33.780Z,9.50
2023-03-22T01:18:01.707Z,9.60
2023-03-22T01:20:28.981Z,9.60
2023-03-22T01:22:55.862Z,9.60
2023-03-22T01:25:22.660Z,9.60
2023-03-22T01:27:49.473Z,9.70
2023-03-22T01:30:16.548Z,9.70
2023-03-22T01:32:43.410Z,9.60
2023-03-22T01:35:10.451Z,9.70
2023-03-22T01:37:37.344Z,9.70
2023-03-22T01:40:05.131Z,9.70
2023-03-22T01:42:33.524Z,9.70
2023-03-22T01:45:14.491Z,9.70
2023-03-22T01:48:06.288Z,9.70
2023-03-22T01:50:33.291Z,9.70
2023-03-22T01:53:01.000Z,9.80
2023-03-22T01:55:28.143Z,9.70
2023-03-22T01:57:55.449Z,9.70
2023-03-22T02:00:22.487Z,9.70
2023-03-22T02:02:51.058Z,9.70
2023-03-22T02:05:19.047Z,9.70
2023-03-22T02:07:46.073Z,9.70
2023-03-22T02:10:19.092Z,9.80
2023-03-22T02:13:03.402Z,9.80
2023-03-22T02:15:38.806Z,9.70
2023-03-22T02:18:33.752Z,9.70
2023-03-22T02:21:13.408Z,9.70
2023-03-22T02:24:07.768Z,9.80
2023-03-22T02:27:06.454Z,9.80
2023-03-22T02:29:46.052Z,9.80
2023-03-22T02:32:31.007Z,9.80
2023-03-22T02:35:16.633Z,9.80
2023-03-22T02:38:02.519Z,9.80
2023-03-22T02:40:29.526Z,9.80
2023-03-22T02:43:05.660Z,9.80
2023-03-22T02:45:40.742Z,9.80
2023-03-22T02:48:18.918Z,9.80
2023-03-22T02:51:10.275Z,9.80
2023-03-22T02:53:53.222Z,9.80
2023-03-22T02:56:28.453Z,9.80
2023-03-22T02:58:57.888Z,9.80
2023-03-22T03:01:30.010Z,9.80
2023-03-22T03:04:00.122Z,9.70
2023-03-22T03:06:31.146Z,9.70
2023-03-22T03:08:58.478Z,9.70
2023-03-22T03:11:25.282Z,9.70
2023-03-22T03:13:52.226Z,9.60
2023-03-22T03:16:21.882Z,9.60
2023-03-22T03:19:08.081Z,9.60
2023-03-22T03:22:01.108Z,9.60
2023-03-22T03:24:31.706Z,9.60
2023-03-22T03:27:07.514Z,9.60
2023-03-22T03:29:45.827Z,9.60
2023-03-22T03:32:25.693Z,9.60
2023-03-22T03:35:07.413Z,9.60
2023-03-22T03:37:37.567Z,9.60
2023-03-22T03:40:11.664Z,9.60
2023-03-22T03:42:41.529Z,9.60
2023-03-22T03:45:09.098Z,9.60
2023-03-22T03:47:36.382Z,9.60
2023-03-22T03:50:04.593Z,9.60
2023-03-22T03:52:31.590Z,9.60
2023-03-22T03:54:58.521Z,9.60
2023-03-22T03:57:25.381Z,9.60
2023-03-22T03:59:52.379Z,9.60
2023-03-22T04:02:19.203Z,9.60
2023-03-22T04:04:46.566Z,9.60
2023-03-22T04:07:13.524Z,9.70
2023-03-22T04:09:40.589Z,9.60
2023-03-22T04:12:09.715Z,9.70
2023-03-22T04:14:36.835Z,9.70
2023-03-22T04:17:03.740Z,9.70
2023-03-22T04:19:31.216Z,9.60
2023-03-22T04:21:58.202Z,9.60
2023-03-22T04:24:24.975Z,9.60
2023-03-22T04:26:52.736Z,9.70
2023-03-22T04:29:19.821Z,9.60
2023-03-22T04:31:46.667Z,9.60
2023-03-22T04:34:14.131Z,9.70
2023-03-22T04:36:41.195Z,9.70
2023-03-22T04:39:10.545Z,9.60
2023-03-22T04:41:37.651Z,9.70
2023-03-22T04:44:06.100Z,9.70
2023-03-22T04:46:35.680Z,9.70
2023-03-22T04:49:03.503Z,9.70
2023-03-22T04:51:32.021Z,9.70
2023-03-22T04:53:59.119Z,9.70
2023-03-22T04:56:26.538Z,9.70
2023-03-22T04:58:53.437Z,9.70
2023-03-22T05:01:20.463Z,9.60
2023-03-22T05:03:47.521Z,9.60
2023-03-22T05:06:15.241Z,9.60
2023-03-22T05:08:42.571Z,9.60
2023-03-22T05:11:14.934Z,9.60
2023-03-22T05:13:42.163Z,9.60
2023-03-22T05:16:09.910Z,9.60
2023-03-22T05:18:42.369Z,9.60
2023-03-22T05:21:17.913Z,9.70
2023-03-22T05:23:45.783Z,9.60
2023-03-22T05:26:15.690Z,9.60
2023-03-22T05:28:43.708Z,9.60
2023-03-22T05:31:11.904Z,9.60
2023-03-22T05:33:39.287Z,9.60
2023-03-22T05:36:06.421Z,9.60
2023-03-22T05:38:33.568Z,9.60
2023-03-22T05:41:00.418Z,9.60
2023-03-22T05:43:27.243Z,9.50
2023-03-22T05:45:54.010Z,9.50
2023-03-22T05:48:20.877Z,9.50
2023-03-22T05:50:47.760Z,9.50
2023-03-22T05:53:14.557Z,9.50
2023-03-22T05:55:41.353Z,9.50
2023-03-22T05:58:08.497Z,9.50
2023-03-22T06:00:35.806Z,9.50
2023-03-22T06:03:03.872Z,9.50
2023-03-22T06:05:32.148Z,9.50
2023-03-22T06:07:59.389Z,9.50
2023-03-22T06:10:26.967Z,9.50
2023-03-22T06:12:54.136Z,9.50
2023-03-22T06:15:21.004Z,9.50
2023-03-22T06:17:48.073Z,9.50
2023-03-22T06:20:15.959Z,9.50
2023-03-22T06:22:42.913Z,9.50
2023-03-22T06:25:11.001Z,9.50
2023-03-22T06:27:38.364Z,9.50
2023-03-22T06:30:06.023Z,9.50
2023-03-22T06:32:32.839Z,9.50
2023-03-22T06:34:59.596Z,9.50
2023-03-22T06:37:26.494Z,9.50
2023-03-22T06:39:53.421Z,9.50
2023-03-22T06:42:20.317Z,9.50
2023-03-22T06:44:47.443Z,9.60
2023-03-22T06:47:14.270Z,9.50
2023-03-22T06:49:41.091Z,9.60
2023-03-22T06:52:07.942Z,9.60
2023-03-22T06:54:34.827Z,9.70
2023-03-22T06:57:01.667Z,9.70
2023-03-22T06:59:28.506Z,9.70
2023-03-22T07:01:55.441Z,9.70
2023-03-22T07:04:22.491Z,9.70
2023-03-22T07:06:49.448Z,9.70
2023-03-22T07:09:16.647Z,9.70
2023-03-22T07:11:43.616Z,9.80
2023-03-22T07:14:10.459Z,9.80
2023-03-22T07:16:37.235Z,9.80
2023-03-22T07:19:04.125Z,9.90
2023-03-22T07:21:31.238Z,9.90
2023-03-22T07:23:58.290Z,9.90
2023-03-22T07:26:26.383Z,9.90
2023-03-22T07:28:53.380Z,10.00
2023-03-22T07:31:20.351Z,10.00
2023-03-22T07:33:48.282Z,10.00
2023-03-22T07:36:15.572Z,10.10
2023-03-22T07:38:42.436Z,10.10
2023-03-22T07:41:09.304Z,10.20
2023-03-22T07:43:50.884Z,10.20
2023-03-22T07:46:20.236Z,10.20
2023-03-22T07:48:47.098Z,10.20
2023-03-22T07:51:13.945Z,10.20
2023-03-22T07:53:40.916Z,10.20
2023-03-22T07:56:08.253Z,10.20
2023-03-22T07:58:35.151Z,10.20
2023-03-22T08:01:09.009Z,10.30
2023-03-22T08:03:36.697Z,10.30
2023-03-22T08:06:07.631Z,10.30
2023-03-22T08:08:36.966Z,10.30
2023-03-22T08:11:07.298Z,10.40
2023-03-22T08:13:34.211Z,10.40
2023-03-22T08:16:01.773Z,10.40
2023-03-22T08:18:28.758Z,10.40
2023-03-22T08:20:58.098Z,10.50
2023-03-22T08:23:38.391Z,10.50
2023-03-22T08:26:08.560Z,10.50
2023-03-22T08:28:35.546Z,10.50
2023-03-22T08:31:02.479Z,10.50
2023-03-22T08:33:29.525Z,10.50
2023-03-22T08:36:08.347Z,10.50
2023-03-22T08:38:35.488Z,10.60
2023-03-22T08:41:03.344Z,10.60
2023-03-22T08:43:31.586Z,10.70
2023-03-22T08:45:58.563Z,10.70
2023-03-22T08:48:28.059Z,10.70
2023-03-22T08:50:55.018Z,10.70
2023-03-22T08:53:21.815Z,10.80
2023-03-22T08:55:48.735Z,10.80
2023-03-22T08:58:16.653Z,10.80
2023-03-22T09:00:48.983Z,10.80
2023-03-22T09:03:17.332Z,10.80
2023-03-22T09:05:44.254Z,10.80
2023-03-22T09:08:18.443Z,10.80
2023-03-22T09:10:51.319Z,10.80
2023-03-22T09:13:18.700Z,10.80
2023-03-22T09:15:45.859Z,10.80
2023-03-22T09:18:12.990Z,10.80
2023-03-22T09:20:40.670Z,10.80
2023-03-22T09:23:07.768Z,10.80
2023-03-22T09:25:34.619Z,10.80
2023-03-22T09:28:02.271Z,10.80
2023-03-22T09:30:29.148Z,10.90
2023-03-22T09:32:56.592Z,10.90
2023-03-22T09:35:23.467Z,10.90
2023-03-22T09:37:53.399Z,10.90
2023-03-22T09:40:21.596Z,10.90
2023-03-22T09:42:50.776Z,10.90
2023-03-22T09:45:21.412Z,10.90
2023-03-22T09:47:51.736Z,11.00
2023-03-22T09:50:28.379Z,10.90
2023-03-22T09:52:55.480Z,10.90
2023-03-22T09:55:43.818Z,10.90
2023-03-22T09:58:39.889Z,10.90
2023-03-22T10:01:12.028Z,10.90
2023-03-22T10:04:08.358Z,10.80
2023-03-22T10:06:35.216Z,10.80
2023-03-22T10:09:09.982Z,10.90
2023-03-22T10:11:57.393Z,10.90
2023-03-22T10:14:30.369Z,10.80
2023-03-22T10:16:59.307Z,10.90
2023-03-22T10:19:27.518Z,10.90
2023-03-22T10:21:55.714Z,10.90
2023-03-22T10:24:32.180Z,11.00
2023-03-22T10:26:59.077Z,11.00
2023-03-22T10:29:35.030Z,11.00
2023-03-22T10:32:10.773Z,11.00
2023-03-22T10:34:37.581Z,11.00
2023-03-22T10:37:06.473Z,11.00
2023-03-22T10:39:39.781Z,11.00
2023-03-22T10:42:16.061Z,11.10
2023-03-22T10:44:52.422Z,11.10
2023-03-22T10:47:26.743Z,11.10
2023-03-22T10:49:56.133Z,11.10
2023-03-22T10:52:50.334Z,11.10
2023-03-22T10:55:17.306Z,11.10
2023-03-22T10:58:10.752Z,11.10
2023-03-22T11:00:41.190Z,11.20
2023-03-22T11:03:09.153Z,11.20
2023-03-22T11:05:36.131Z,11.30
2023-03-22T11:08:03.890Z,11.30
2023-03-22T11:10:34.558Z,11.30
2023-03-22T11:13:07.699Z,11.30
2023-03-22T11:15:55.953Z,11.30
2023-03-22T11:18:22.941Z,11.40
2023-03-22T11:20:57.010Z,11.40
2023-03-22T11:23:24.457Z,11.40
2023-03-22T11:25:52.925Z,11.50
2023-03-22T11:28:21.214Z,11.40
2023-03-22T11:31:01.920Z,11.50
2023-03-22T11:33:29.182Z,11.50
2023-03-22T11:35:58.480Z,11.50
2023-03-22T11:38:26.641Z,11.60
2023-03-22T11:41:08.482Z,11.60
2023-03-22T11:43:42.325Z,11.60
2023-03-22T11:46:09.395Z,11.60
2023-03-22T11:48:36.948Z,11.60
2023-03-22T11:51:09.837Z,11.60
2023-03-22T11:53:38.855Z,11.60
2023-03-22T11:56:07.694Z,11.60
2023-03-22T11:58:37.473Z,11.70
2023-03-22T12:01:06.020Z,11.60
2023-03-22T12:03:39.563Z,11.60
2023-03-22T12:06:21.530Z,11.60
2023-03-22T12:08:53.198Z,11.70
2023-03-22T12:11:27.768Z,11.70
2023-03-22T12:14:21.161Z,11.70
2023-03-22T12:16:56.435Z,11.70
2023-03-22T12:19:42.295Z,11.70
2023-03-22T12:22:18.566Z,11.70
2023-03-22T12:24:46.118Z,11.70
2023-03-22T12:27:23.334Z,11.80
2023-03-22T12:30:26.143Z,11.80
2023-03-22T12:32:56.520Z,11.90
2023-03-22T12:35:27.267Z,11.90
2023-03-22T12:38:01.718Z,11.90
2023-03-22T12:40:32.848Z,11.90
2023-03-22T12:43:06.212Z,11.90
2023-03-22T12:45:39.877Z,11.90
2023-03-22T12:48:16.137Z,11.90
2023-03-22T12:50:44.025Z,12.00
2023-03-22T12:53:17.204Z,12.00
2023-03-22T12:55:46.043Z,12.00
2023-03-22T12:58:22.454Z,12.00
2023-03-22T13:01:24.965Z,12.00
2023-03-22T13:03:54.810Z,12.10
2023-03-22T13:06:37.245Z,12.00
2023-03-22T13:09:21.240Z,12.10
2023-03-22T13:12:16.762Z,12.10
2023-03-22T13:14:52.357Z,12.10
2023-03-22T13:17:22.304Z,12.10
2023-03-22T13:20:07.991Z,12.10
2023-03-22T13:22:37.941Z,12.10
2023-03-22T13:25:12.977Z,12.10
2023-03-22T13:27:46.193Z,12.10
2023-03-22T13:30:16.069Z,12.10
2023-03-22T13:33:10.552Z,12.10
2023-03-22T13:35:37.934Z,12.20
2023-03-22T13:38:31.191Z,12.20
2023-03-22T13:41:08.011Z,12.20
2023-03-22T13:43:50.353Z,12.20
2023-03-22T13:46:20.799Z,12.20
2023-03-22T13:48:48.404Z,12.30
2023-03-22T13:51:22.040Z,12.20
2023-03-22T13:54:07.660Z,12.30
2023-03-22T13:56:41.153Z,12.20
2023-03-22T13:59:11.643Z,12.30
2023-03-22T14:01:51.745Z,12.30
2023-03-22T14:04:26.486Z,12.20
2023-03-22T14:06:57.432Z,12.30
2023-03-22T14:09:48.789Z,12.30
2023-03-22T14:12:36.195Z,12.30
2023-03-22T14:15:05.252Z,12.20
2023-03-22T14:17:36.273Z,12.30
2023-03-22T14:20:06.644Z,12.20
